Kaweah, CA (93237)

5:05 PM PDT on August 27, 2014 (GMT -0700)
Three Rivers Historical Society | Change Station
CLOSE
Current Station
Personal Weather Station
Location: Three Rivers, CA
Elevation: 866 ft
Nearby Weather Stations

Elev 866 ft 36.45 °N, 118.90 °W | Updated 2 seconds ago

Clear
Clear
96.0 °F
Feels Like 93 °F
N
2.0
Wind Variable Wind from SW
Gusts 12.0 mph

Today
High -- | Low -- °F
--% Chance of Precip.
Yesterday
High -- | Low -- °F
Precip. -- in
6:23 AM 7:30 PM
Waxing Crescent, 5% visible
Pressure 29.94 in
Visibility 10.0 miles
Clouds Clear
Heat Index 93 °F
Dew Point 52 °F
Humidity 23%
Rainfall 0.00 in
Snow Depth Not available.
UV 3 out of 12
Pollen 8.90 out of 12
Air Quality Not available.
Flu Activity Not available.
METAR KVIS 272355Z AUTO 28005KT 10SM CLR 34/13 A2994 RMK AO1 10350 20270 403500170 57017

More Conditions Fewer Conditions

Pressure 29.94 in
Visibility 10.0 miles
Clouds Clear
Heat Index 93 °F
Dew Point 52 °F
Humidity 23%
Rainfall 0.00 in
Snow Depth Not available.
UV 3 out of 12
Pollen 8.90 out of 12
Air Quality Not available.
Flu Activity Not available.
METAR KVIS 272355Z AUTO 28005KT 10SM CLR 34/13 A2994 RMK AO1 10350 20270 403500170 57017

More Conditions Fewer Conditions

10-Day Weather Forecast

Almanac

Astronomy

Aug. 27, 2014 Rise Set
Actual Time 6:23 AM PDT 7:30 PM PDT
Civil Twilight 5:56 AM PDT 7:57 PM PDT
Nautical Twilight 5:24 AM PDT 8:28 PM PDT
Astronomical Twilight 4:51 AM PDT 9:01 PM PDT
Moon 8:19 AM PDT (8/27) 8:30 PM PDT (8/27)
Length of Visible Light 14h 00m
Length of Day
13h 07m
Tomorrow will be 2m 10s shorter.
Waxing Crescent, 5% of the Moon is Illuminated
Today
Waxing Crescent
Sep 2
First Quarter
Sep 8
Full
Sep 15
Last Quarter
Sep 24
New

Today's Extremes

State Highs State Lows

Community

WunderPhotos

Upload Photos

1,747,826 photos uploaded!

Nearby

Snow Depth

Station Depth Elevation
Leavitt Meadows 0 in 7200 ft
Hagan's Meadow 0 in 8000 ft
Fallen Leaf 0 in 6300 ft
CSS Lab 1 in 6900 ft
Adin Mountain 0 in 6200 ft

Earthquake Activity

City Distance Mag. Time & Date
No recent earthquake activity has been reported nearby.
Minimum magnitude displayed is 2.5.

Coastal Water Temperatures

Place Temperature
No Stations Reporting

Nearby Weather Stations